Skip Navigation Links
NOAA logo - Click to go to the NOAA homepage
NOAA's National Weather Service
Alaska Aviation Weather Unit
  NWS logo - Click to go to the NWS homepage
Left Navbar Graphic     18 AKDT = 02 GMT

   
NOAA is celebrating 200 years of science, service, and stewardship. Visit the NOAA 200th celebration Web site to learn more.
USA.gov is the U.S. Government's official Web portal to all Federal, state and local government Web resources and services.
Facebook
NWS on Facebook

Important Change Regarding the AAWU Web Presence

 

Over the last several months, the AAWU has been working to navigate its webpages to a nationally supported server. Security, as well as other needs, have necessitated the change.  In the process, we have made an effort to enhance the functionality of our website, as well as some of our products. As of June 20, 2017, aawu.arh.noaa.gov will be discontinued. The new AAWU web address is weather.gov/aawu. It is now live and will run in-parallel with the old site until it is discontinued. Please send any feedback or questions regarding the new webpages to nws.ar.aawu.webauthors@noaa.gov.  Thank you for your patience during this time of transition.
AAWU Home :: Display TAF Add Bookmark
TAF PASN 242328Z 2500/2524 28020G32KT 6SM -SHRA SCT015 BKN035
      TEMPO 2500/2504 BKN025
     FM251200 27016KT 6SM -SHRA BKN025
     FM251500 25010KT P6SM BKN020=
METAR PASN 242053Z AUTO 25019G26KT 10SM -RA CLR 06/03 A2981 RMK AO2 PK
     WND 25026/2048 RAB09 SLP096 P0000 60000 T00560028 51020
     TSNO=

METAR PASN 242153Z AUTO 25021G28KT 10SM -RA FEW023 FEW042 07/02
 A2983 RMK AO2 PK WND 25031/2126 SLP101 P0000 T00670022 TSNO=

SPECI PASN 242214Z AUTO 25021G27KT 10SM -RA BKN017 07/02 A2983 RMK AO2
     PK WND 25028/2202 P0000 T00670022 TSNO=

METAR PASN 242253Z AUTO 26021G28KT 10SM -RA FEW015 FEW028 SCT039 08/02
     A2984 RMK AO2 PK WND 25029/2244 SLP105 P0000 T00780022 TSNO
     $=

METAR PASN 242353Z AUTO 27021G28KT 10SM -RA SCT020 BKN029 OVC040
 04/02 A2987 RMK AO2 PK WND 26030/2303 SLP114 P0000 60000
 T00440022 10078 20033 53018 TSNO $=

PASN 250049Z AUTO 26021G28KT 10SM -RA FEW016 SCT026 BKN039 06/03
A2988=

METAR PASN 250053Z AUTO 26023G29KT 10SM -RA FEW026 BKN039 06/03 A2988
     RMK AO2 PK WND 27035/0022 SNB28E38 SLP119 P0001 T00560033
     TSNO $=

METAR PASN 250153Z AUTO 25024G30KT 10SM -RA BKN021 BKN030 07/02
 A2989 RMK AO2 PK WND 25030/0153 SLP121 P0000 T00670022 TSNO $=

PASN 250201Z AUTO 26024G31KT 10SM -RA SCT021 BKN030 07/02 A2989=


NOAA's National Weather Service
Alaska Aviation Weather Unit
6930 Sand Lake Road
Anchorage, AK 99502-1845
Disclaimer
Credits
Glossary
Privacy Policy
About Us
Career Opportunities
Contact AAWU Internet Services Site last modified: April, 17th 2012